ROMMA est une association bénévole à but non lucratif. Votre soutien est indispensable : ADHERER à ROMMA ou FAIRE un DON

Crest - (26, Drôme)

Vallée de la Drôme (315 m)   Longitude: 5°2' E   Latitude: 44°44' N Station partenaire n°62
 

Détail journalier du     <<     >>

Température Precipitation Humidité Pression Vent Dir Rafale Dir. rafale Ensol.
Heure (°C) (mm) (%) (hPa) (km/h) (km/h) (min)
01:00 20.206710171SE11ESE0
02:00 20.506710161---8SSO0
03:00 19.107310162S8ESE0
04:00 19.2072101603SSE0
05:00 19.307110161SE3SE0
06:00 18.807310151SE6SE0
07:00 18.307610151SSE6SSE0
08:00 18.807310161SSE6SSE0
09:00 20.107010161ESE5ESE14
10:00 22.506110162ESE11E33
11:00 26.504710161ESE6ESE25
12:00 26.904510153ESE10SE12
13:00 28.803710153NE15ESE4
14:00 31.103210146SE26SE36
15:00 32.102710138SE26SE60
16:00 32.302810128ESE24SE60
17:00 32.602410116ESE19ESE60
18:00 31.002910117SE19ESE52
19:00 29.402810127SE23ESE51
20:00 26.6040101311SE37SE6
21:00 24.804310147ESE32ESE0
22:00 23.404810143SSE11S0
23:00 23.504910144ENE13ENE0
minuit 22.505310142SSE10ENE0

Graphique du 31-08-2019

 

Serveur OMMA